Time;durP1;ratioP1;P1;durP2;ratioP2;P2;SDS_P1;SDS_P2;PMS_P1;PMS_P2;Temp;Humidity;BMP_temperature;BMP_pressure;BME280_temperature;BME280_humidity;BME280_pressure;Samples;Min_cycle;Max_cycle;Signal;HPM_P1;HPM_P2
2022/03/18 00:01:44;;;;;;;5.68;2.50;;;;;;;;;;5071369;28;20094;-80
2022/03/18 00:04:12;;;;;;;3.72;2.47;;;;;;;;;;5071484;28;20380;-83
2022/03/18 00:06:39;;;;;;;5.95;2.85;;;;;;;;;;5072613;28;20079;-83
2022/03/18 00:09:05;;;;;;;5.45;2.97;;;;;;;;;;5091196;28;20048;-83
2022/03/18 00:11:31;;;;;;;5.10;3.00;;;;;;;;;;5084327;28;20082;-84
2022/03/18 00:13:58;;;;;;;7.82;3.15;;;;;;;;;;5086379;28;20063;-84
2022/03/18 00:16:24;;;;;;;7.55;3.35;;;;;;;;;;5079763;28;20076;-84
2022/03/18 00:18:50;;;;;;;4.90;2.67;;;;;;;;;;5067689;28;20046;-85
2022/03/18 00:21:17;;;;;;;5.95;2.80;;;;;;;;;;5083649;28;20044;-84
2022/03/18 00:23:43;;;;;;;4.55;2.97;;;;;;;;;;5069579;28;20046;-84
2022/03/18 00:26:09;;;;;;;3.80;2.70;;;;;;;;;;5067792;28;20086;-83
2022/03/18 00:28:35;;;;;;;7.28;2.80;;;;;;;;;;5060600;28;20040;-84
2022/03/18 00:31:03;;;;;;;5.25;2.88;;;;;;;;;;5087498;28;20048;-84
2022/03/18 00:33:29;;;;;;;5.68;2.80;;;;;;;;;;5064909;28;20124;-84
2022/03/18 00:35:55;;;;;;;5.78;2.97;;;;;;;;;;5083981;28;20051;-85
2022/03/18 00:38:21;;;;;;;5.43;3.08;;;;;;;;;;5067232;28;20086;-84
2022/03/18 00:40:50;;;;;;;6.63;2.97;;;;;;;;;;5090767;28;20415;-84
2022/03/18 00:43:17;;;;;;;6.07;2.80;;;;;;;;;;5069579;28;20089;-84
2022/03/18 00:45:43;;;;;;;5.35;2.80;;;;;;;;;;5078932;28;20078;-84
2022/03/18 00:53:38;;;;;;;7.80;2.97;;;;;;;;;;5084768;28;20415;-84
2022/03/18 00:56:04;;;;;;;5.78;2.72;;;;;;;;;;5089759;28;20036;-84
2022/03/18 00:58:31;;;;;;;4.60;2.88;;;;;;;;;;5088210;28;20051;-84
2022/03/18 01:00:56;;;;;;;4.43;2.40;;;;;;;;;;5085230;28;20056;-84
2022/03/18 01:03:22;;;;;;;8.20;3.10;;;;;;;;;;5086106;28;20051;-84
2022/03/18 01:05:48;;;;;;;5.53;2.65;;;;;;;;;;5087592;28;20415;-83
2022/03/18 01:08:14;;;;;;;6.78;3.20;;;;;;;;;;5059406;28;20046;-84
2022/03/18 01:10:40;;;;;;;7.55;3.05;;;;;;;;;;5087043;28;20048;-84
2022/03/18 01:13:06;;;;;;;7.82;3.05;;;;;;;;;;5086437;28;20459;-83
2022/03/18 01:15:33;;;;;;;5.35;3.10;;;;;;;;;;5087983;28;20526;-84
2022/03/18 01:17:59;;;;;;;6.47;3.08;;;;;;;;;;5059782;28;20048;-84
2022/03/18 01:20:25;;;;;;;6.22;2.83;;;;;;;;;;5070801;28;20040;-85
2022/03/18 01:22:51;;;;;;;7.75;3.10;;;;;;;;;;5071142;28;20048;-84
2022/03/18 01:25:17;;;;;;;10.38;3.50;;;;;;;;;;5060784;28;20139;-84
2022/03/18 01:27:44;;;;;;;7.05;3.13;;;;;;;;;;5089887;28;20040;-83
2022/03/18 01:30:10;;;;;;;5.03;2.97;;;;;;;;;;5089732;28;20093;-84
2022/03/18 01:32:36;;;;;;;6.72;3.20;;;;;;;;;;5089849;28;20044;-84
2022/03/18 01:35:02;;;;;;;6.13;3.40;;;;;;;;;;5090278;28;20157;-84
2022/03/18 01:37:28;;;;;;;5.88;3.70;;;;;;;;;;5088457;28;20039;-84
2022/03/18 01:39:55;;;;;;;7.63;3.70;;;;;;;;;;5087853;28;20048;-84
2022/03/18 01:42:21;;;;;;;8.07;3.83;;;;;;;;;;5069968;28;20059;-84
2022/03/18 01:44:47;;;;;;;7.70;3.72;;;;;;;;;;5084676;28;20091;-84
2022/03/18 01:47:13;;;;;;;8.20;3.90;;;;;;;;;;5084861;28;20052;-83
2022/03/18 01:49:39;;;;;;;5.75;3.35;;;;;;;;;;5090450;28;20040;-84
2022/03/18 01:52:09;;;;;;;9.35;3.42;;;;;;;;;;5073990;28;20052;-84
2022/03/18 01:54:44;;;;;;;6.75;3.60;;;;;;;;;;5090779;28;20040;-84
2022/03/18 01:57:11;;;;;;;8.18;3.90;;;;;;;;;;5089296;28;20048;-84
2022/03/18 01:59:37;;;;;;;6.40;3.60;;;;;;;;;;5068014;28;20080;-83
2022/03/18 02:02:04;;;;;;;6.40;3.35;;;;;;;;;;5068252;28;20480;-84
2022/03/18 02:04:30;;;;;;;6.55;3.92;;;;;;;;;;5070334;28;20040;-83
2022/03/18 02:06:57;;;;;;;4.82;3.60;;;;;;;;;;5072780;28;20063;-84
2022/03/18 02:09:23;;;;;;;6.72;3.70;;;;;;;;;;5091016;28;20047;-84
2022/03/18 02:11:49;;;;;;;7.78;3.90;;;;;;;;;;5079105;28;20055;-84
2022/03/18 02:14:29;;;;;;;8.27;4.18;;;;;;;;;;5061755;28;20037;-84
2022/03/18 02:16:55;;;;;;;7.78;3.83;;;;;;;;;;5074687;28;20506;-84
2022/03/18 02:19:21;;;;;;;7.85;3.70;;;;;;;;;;5071524;28;20048;-84
2022/03/18 02:21:49;;;;;;;8.27;4.40;;;;;;;;;;5088300;28;20058;-84
2022/03/18 02:24:15;;;;;;;6.82;4.20;;;;;;;;;;5071777;28;20043;-84
2022/03/18 02:26:41;;;;;;;7.72;4.55;;;;;;;;;;5088481;28;20048;-84
2022/03/18 02:29:08;;;;;;;8.27;4.53;;;;;;;;;;5083353;28;20050;-84
2022/03/18 02:31:34;;;;;;;8.32;4.80;;;;;;;;;;5092190;28;20462;-84
2022/03/18 02:34:00;;;;;;;11.05;5.43;;;;;;;;;;5090812;28;20036;-85
2022/03/18 02:36:26;;;;;;;7.05;5.25;;;;;;;;;;5088366;28;20040;-84
2022/03/18 02:38:52;;;;;;;10.07;5.70;;;;;;;;;;5069136;28;20526;-84
2022/03/18 02:41:18;;;;;;;9.70;6.00;;;;;;;;;;5073110;28;20040;-84
2022/03/18 02:43:44;;;;;;;7.10;5.45;;;;;;;;;;5088836;28;20092;-83
2022/03/18 02:46:10;;;;;;;8.32;6.03;;;;;;;;;;5089875;28;20072;-83
2022/03/18 02:48:36;;;;;;;7.45;5.50;;;;;;;;;;5087504;28;20063;-84
2022/03/18 02:51:03;;;;;;;10.95;6.22;;;;;;;;;;5091331;28;20044;-84
2022/03/18 02:53:28;;;;;;;10.20;6.15;;;;;;;;;;5071465;28;20044;-84
2022/03/18 02:55:55;;;;;;;10.93;6.68;;;;;;;;;;5091266;28;20039;-84
2022/03/18 02:58:21;;;;;;;9.57;5.70;;;;;;;;;;5084588;28;20452;-85
2022/03/18 03:00:47;;;;;;;10.18;6.13;;;;;;;;;;5074036;28;20056;-84
2022/03/18 03:03:13;;;;;;;8.80;6.13;;;;;;;;;;5093600;28;20048;-84
2022/03/18 03:08:24;;;;;;;9.73;5.22;;;;;;;;;;5088108;28;20254;-85
2022/03/18 03:10:50;;;;;;;9.77;5.47;;;;;;;;;;5070653;28;20185;-84
2022/03/18 03:13:16;;;;;;;10.90;5.22;;;;;;;;;;5087758;28;20166;-84
2022/03/18 03:15:42;;;;;;;13.02;4.82;;;;;;;;;;5072482;28;20607;-84
2022/03/18 03:18:08;;;;;;;9.02;4.93;;;;;;;;;;5065959;28;20357;-84
2022/03/18 03:20:34;;;;;;;9.93;4.95;;;;;;;;;;5069853;28;20067;-84
2022/03/18 03:23:01;;;;;;;11.40;5.13;;;;;;;;;;5087671;28;20530;-83
2022/03/18 03:25:27;;;;;;;8.75;5.03;;;;;;;;;;5091225;28;20050;-81
2022/03/18 03:27:56;;;;;;;8.15;4.85;;;;;;;;;;5066698;28;20506;-83
2022/03/18 03:30:23;;;;;;;12.18;5.43;;;;;;;;;;5087895;28;20135;-84
2022/03/18 03:32:50;;;;;;;9.85;5.13;;;;;;;;;;5072530;28;20044;-84
2022/03/18 03:35:16;;;;;;;13.63;5.70;;;;;;;;;;5091499;28;20052;-84
2022/03/18 03:37:43;;;;;;;13.63;5.22;;;;;;;;;;5087174;28;20044;-83
2022/03/18 03:40:13;;;;;;;12.43;5.95;;;;;;;;;;5070740;28;20036;-83
2022/03/18 03:42:40;;;;;;;10.30;5.22;;;;;;;;;;5089009;28;20044;-84
2022/03/18 03:45:06;;;;;;;9.23;5.18;;;;;;;;;;5082527;28;20178;-83
2022/03/18 03:47:39;;;;;;;9.40;5.28;;;;;;;;;;5069283;28;21659;-84
2022/03/18 03:50:05;;;;;;;10.73;5.10;;;;;;;;;;5090677;28;20468;-84
2022/03/18 03:52:32;;;;;;;11.63;5.53;;;;;;;;;;5089340;28;20047;-84
2022/03/18 03:55:01;;;;;;;9.70;5.22;;;;;;;;;;5084408;28;20055;-83
2022/03/18 03:57:27;;;;;;;10.98;4.97;;;;;;;;;;5060092;28;20053;-83
2022/03/18 03:59:53;;;;;;;8.98;5.13;;;;;;;;;;5068276;28;20410;-83
2022/03/18 04:02:20;;;;;;;9.20;5.10;;;;;;;;;;5069094;28;20044;-84
2022/03/18 04:04:47;;;;;;;10.73;4.93;;;;;;;;;;5079248;28;20095;-83
2022/03/18 04:07:13;;;;;;;10.88;5.45;;;;;;;;;;5087332;28;20105;-84
2022/03/18 04:09:39;;;;;;;11.73;5.78;;;;;;;;;;5068263;28;20040;-84
2022/03/18 04:12:05;;;;;;;13.20;5.40;;;;;;;;;;5067327;28;20550;-83
2022/03/18 04:14:31;;;;;;;9.35;5.18;;;;;;;;;;5066534;28;20377;-84
2022/03/18 04:16:57;;;;;;;9.68;5.57;;;;;;;;;;5088385;28;20094;-83
2022/03/18 04:19:23;;;;;;;12.00;5.28;;;;;;;;;;5088224;28;20036;-84
2022/03/18 04:21:49;;;;;;;9.52;5.00;;;;;;;;;;5070215;28;20032;-83
2022/03/18 04:24:15;;;;;;;10.00;5.57;;;;;;;;;;5070858;28;20043;-83
2022/03/18 04:26:42;;;;;;;10.32;5.43;;;;;;;;;;5088151;28;20069;-83
2022/03/18 04:29:12;;;;;;;10.80;5.45;;;;;;;;;;5083804;28;20506;-84
2022/03/18 04:31:38;;;;;;;11.07;5.88;;;;;;;;;;5062318;28;20127;-83
2022/03/18 04:34:04;;;;;;;10.05;5.35;;;;;;;;;;5082001;28;20036;-84
2022/03/18 04:36:31;;;;;;;11.85;6.20;;;;;;;;;;5088480;28;20052;-83
2022/03/18 04:38:59;;;;;;;14.32;6.50;;;;;;;;;;5055371;28;20490;-84
2022/03/18 04:41:26;;;;;;;11.88;5.78;;;;;;;;;;5066970;28;20052;-84
2022/03/18 04:43:52;;;;;;;15.45;6.40;;;;;;;;;;5086924;28;20048;-83
2022/03/18 04:46:18;;;;;;;10.93;6.18;;;;;;;;;;5086324;28;20048;-83
2022/03/18 04:48:44;;;;;;;13.05;5.57;;;;;;;;;;5078965;28;20048;-84
2022/03/18 04:51:10;;;;;;;14.23;6.43;;;;;;;;;;5078106;28;20123;-84
2022/03/18 04:53:36;;;;;;;14.13;6.47;;;;;;;;;;5089273;28;20055;-83
2022/03/18 04:56:02;;;;;;;14.20;6.10;;;;;;;;;;5085912;28;20048;-83
2022/03/18 04:58:28;;;;;;;13.18;6.80;;;;;;;;;;5087650;28;20661;-83
2022/03/18 05:00:54;;;;;;;13.00;6.55;;;;;;;;;;5063971;28;20051;-83
2022/03/18 05:03:20;;;;;;;13.77;6.82;;;;;;;;;;5053794;28;20186;-83
2022/03/18 05:05:46;;;;;;;15.73;6.63;;;;;;;;;;5065032;28;20485;-84
2022/03/18 05:08:15;;;;;;;13.50;6.85;;;;;;;;;;5072724;28;20111;-83
2022/03/18 05:10:41;;;;;;;14.10;6.60;;;;;;;;;;5080498;28;21019;-84
2022/03/18 05:13:08;;;;;;;12.70;6.80;;;;;;;;;;5090228;28;20097;-82
2022/03/18 05:15:34;;;;;;;12.48;5.88;;;;;;;;;;5069264;28;20051;-82
2022/03/18 05:18:00;;;;;;;10.82;6.22;;;;;;;;;;5086506;28;20036;-83
2022/03/18 05:20:26;;;;;;;10.95;5.90;;;;;;;;;;5058462;28;20060;-84
2022/03/18 05:22:52;;;;;;;12.80;5.95;;;;;;;;;;5079091;28;20040;-84
2022/03/18 05:25:18;;;;;;;10.93;6.13;;;;;;;;;;5068944;28;20135;-83
2022/03/18 05:27:45;;;;;;;15.65;6.07;;;;;;;;;;5070277;28;20060;-83
2022/03/18 05:30:12;;;;;;;10.88;6.10;;;;;;;;;;5070678;28;20048;-83
2022/03/18 05:32:40;;;;;;;11.43;5.40;;;;;;;;;;5090434;28;20039;-83
2022/03/18 05:35:06;;;;;;;10.65;5.43;;;;;;;;;;5075572;28;20052;-84
2022/03/18 05:37:32;;;;;;;12.98;5.38;;;;;;;;;;5091161;28;20040;-83
2022/03/18 05:39:59;;;;;;;16.02;5.97;;;;;;;;;;5092561;28;20054;-82
2022/03/18 05:42:26;;;;;;;11.48;5.88;;;;;;;;;;5088803;28;20048;-83
2022/03/18 05:44:52;;;;;;;15.02;6.22;;;;;;;;;;5070459;28;20056;-83
2022/03/18 05:47:18;;;;;;;11.20;5.80;;;;;;;;;;5086998;28;20079;-83
2022/03/18 05:49:45;;;;;;;11.57;6.03;;;;;;;;;;5072291;28;20047;-83
2022/03/18 05:52:11;;;;;;;11.82;6.38;;;;;;;;;;5066156;28;20072;-83
2022/03/18 05:54:37;;;;;;;11.43;6.53;;;;;;;;;;5086029;28;20039;-83
2022/03/18 05:57:03;;;;;;;12.38;6.90;;;;;;;;;;5093774;28;20036;-84
2022/03/18 05:59:32;;;;;;;12.40;7.43;;;;;;;;;;5069052;28;20044;-84
2022/03/18 06:01:59;;;;;;;13.52;8.07;;;;;;;;;;5070020;28;20461;-83
2022/03/18 06:04:25;;;;;;;16.95;8.20;;;;;;;;;;5087436;28;20048;-82
2022/03/18 06:06:51;;;;;;;15.88;8.35;;;;;;;;;;5090370;28;20036;-84
2022/03/18 06:12:03;;;;;;;15.93;8.77;;;;;;;;;;5066709;28;20040;-84
2022/03/18 06:14:30;;;;;;;15.25;9.90;;;;;;;;;;5068280;28;20066;-85
2022/03/18 06:16:57;;;;;;;17.05;9.68;;;;;;;;;;5086537;28;20101;-84
2022/03/18 06:19:24;;;;;;;14.63;9.15;;;;;;;;;;5069632;28;20036;-84
2022/03/18 06:21:50;;;;;;;15.15;9.82;;;;;;;;;;5091361;28;20047;-84
2022/03/18 06:24:17;;;;;;;15.63;9.85;;;;;;;;;;5072797;28;20046;-85
2022/03/18 06:26:44;;;;;;;16.23;10.02;;;;;;;;;;5090687;28;20083;-83
2022/03/18 06:29:10;;;;;;;15.10;10.02;;;;;;;;;;5083339;28;20035;-84
2022/03/18 06:31:37;;;;;;;16.83;9.35;;;;;;;;;;5082710;28;20121;-84
2022/03/18 06:34:03;;;;;;;16.48;9.38;;;;;;;;;;5083058;28;20078;-84
2022/03/18 06:36:30;;;;;;;14.43;10.00;;;;;;;;;;5086283;28;20063;-84
2022/03/18 06:38:56;;;;;;;16.00;11.40;;;;;;;;;;5073889;28;20067;-84
2022/03/18 06:41:22;;;;;;;14.40;9.85;;;;;;;;;;5071915;28;20044;-83
2022/03/18 06:43:49;;;;;;;18.02;10.45;;;;;;;;;;5089433;28;20123;-83
2022/03/18 06:46:15;;;;;;;18.38;10.30;;;;;;;;;;5083029;28;20051;-82
2022/03/18 06:48:42;;;;;;;17.63;9.35;;;;;;;;;;5088608;28;20040;-82
2022/03/18 06:51:08;;;;;;;14.18;8.88;;;;;;;;;;5082714;28;20043;-83
2022/03/18 06:53:34;;;;;;;15.77;8.02;;;;;;;;;;5092019;28;20061;-83
2022/03/18 06:56:00;;;;;;;14.05;7.13;;;;;;;;;;5090952;28;20523;-83
2022/03/18 06:58:30;;;;;;;17.98;6.88;;;;;;;;;;5089846;28;20036;-83
2022/03/18 07:00:56;;;;;;;16.10;6.72;;;;;;;;;;5071858;28;20067;-84
2022/03/18 07:03:22;;;;;;;12.50;6.50;;;;;;;;;;5069911;28;20590;-83
2022/03/18 07:05:48;;;;;;;13.23;6.00;;;;;;;;;;5070187;28;20400;-83
2022/03/18 07:08:14;;;;;;;14.55;6.35;;;;;;;;;;5069958;28;20044;-83
2022/03/18 07:10:40;;;;;;;12.75;5.55;;;;;;;;;;5071921;28;20044;-84
2022/03/18 07:13:06;;;;;;;15.45;5.75;;;;;;;;;;5090494;28;20795;-83
2022/03/18 07:15:32;;;;;;;12.90;5.07;;;;;;;;;;5090259;28;20051;-84
2022/03/18 07:17:59;;;;;;;10.48;5.55;;;;;;;;;;5069003;28;20036;-84
2022/03/18 07:20:29;;;;;;;11.30;4.60;;;;;;;;;;5066782;28;20052;-85
2022/03/18 07:23:02;;;;;;;15.55;4.93;;;;;;;;;;5074932;28;20097;-86
2022/03/18 07:25:28;;;;;;;13.52;5.22;;;;;;;;;;5077829;28;20056;-84
2022/03/18 07:27:54;;;;;;;10.85;4.63;;;;;;;;;;5091210;28;20047;-85
2022/03/18 07:30:20;;;;;;;10.38;5.22;;;;;;;;;;5072284;28;20130;-85
2022/03/18 07:32:46;;;;;;;17.13;5.78;;;;;;;;;;5088899;28;20373;-85
2022/03/18 07:35:14;;;;;;;13.32;5.28;;;;;;;;;;5064748;28;20048;-85
2022/03/18 07:37:40;;;;;;;13.80;5.72;;;;;;;;;;5089474;28;20048;-83
2022/03/18 07:40:08;;;;;;;14.23;5.68;;;;;;;;;;5085624;28;20032;-83
2022/03/18 07:42:44;;;;;;;18.20;5.78;;;;;;;;;;5071319;28;20035;-83
2022/03/18 07:45:11;;;;;;;16.63;4.95;;;;;;;;;;5070391;28;20131;-83
2022/03/18 07:47:37;;;;;;;12.43;5.78;;;;;;;;;;5068471;28;20043;-84
2022/03/18 07:50:04;;;;;;;15.07;4.93;;;;;;;;;;5088358;28;20188;-85
2022/03/18 07:52:30;;;;;;;11.23;5.15;;;;;;;;;;5088367;28;20055;-83
2022/03/18 07:54:56;;;;;;;12.10;5.47;;;;;;;;;;5069940;28;20040;-85
2022/03/18 07:57:22;;;;;;;13.65;5.82;;;;;;;;;;5090655;28;20065;-84
2022/03/18 07:59:48;;;;;;;12.88;5.60;;;;;;;;;;5089037;28;20524;-85
2022/03/18 08:02:14;;;;;;;18.63;6.70;;;;;;;;;;5086147;28;20040;-84
2022/03/18 08:04:40;;;;;;;12.93;6.20;;;;;;;;;;5089292;28;20267;-84
2022/03/18 08:07:06;;;;;;;15.13;6.30;;;;;;;;;;5082184;28;20491;-84
2022/03/18 08:09:32;;;;;;;13.20;6.32;;;;;;;;;;5090606;28;20050;-83
2022/03/18 08:11:58;;;;;;;15.20;5.93;;;;;;;;;;5066407;28;20052;-85
2022/03/18 08:14:25;;;;;;;15.82;6.07;;;;;;;;;;5070231;28;20482;-85
2022/03/18 08:16:51;;;;;;;13.52;5.47;;;;;;;;;;5090020;28;20487;-85
2022/03/18 08:19:17;;;;;;;14.20;5.57;;;;;;;;;;5069952;28;20032;-85
2022/03/18 08:21:43;;;;;;;21.88;7.43;;;;;;;;;;5088437;28;20044;-85
2022/03/18 08:24:10;;;;;;;16.38;6.80;;;;;;;;;;5090412;28;20398;-84
2022/03/18 08:26:37;;;;;;;15.35;5.88;;;;;;;;;;5079518;28;20060;-85
2022/03/18 08:29:04;;;;;;;14.80;6.78;;;;;;;;;;5077286;28;20040;-85
2022/03/18 08:31:30;;;;;;;14.82;6.30;;;;;;;;;;5084750;28;20052;-87
2022/03/18 08:33:57;;;;;;;15.55;6.80;;;;;;;;;;5083150;28;20430;-88
2022/03/18 08:36:23;;;;;;;13.57;6.32;;;;;;;;;;5070941;28;20071;-88
2022/03/18 08:38:49;;;;;;;10.70;5.70;;;;;;;;;;5086634;28;20115;-81
2022/03/18 08:41:16;;;;;;;11.30;6.05;;;;;;;;;;5082861;28;20131;-84
2022/03/18 08:43:42;;;;;;;16.02;6.13;;;;;;;;;;5060667;28;20044;-84
2022/03/18 08:46:08;;;;;;;14.32;6.22;;;;;;;;;;5070833;28;20089;-84
2022/03/18 08:48:34;;;;;;;15.90;6.10;;;;;;;;;;5083927;28;20053;-82
2022/03/18 08:51:00;;;;;;;16.92;5.82;;;;;;;;;;5091019;28;20042;-84
2022/03/18 08:53:26;;;;;;;15.15;6.30;;;;;;;;;;5084797;28;20970;-86
2022/03/18 08:55:52;;;;;;;15.13;5.72;;;;;;;;;;5074407;28;20060;-84
2022/03/18 08:58:20;;;;;;;9.98;5.28;;;;;;;;;;5073046;28;20710;-86
2022/03/18 09:00:46;;;;;;;15.13;5.90;;;;;;;;;;5081545;28;20059;-85
2022/03/18 09:03:12;;;;;;;19.88;5.72;;;;;;;;;;5071796;28;20044;-85
2022/03/18 09:05:38;;;;;;;13.50;5.47;;;;;;;;;;5065359;28;20108;-85
2022/03/18 09:08:07;;;;;;;11.80;5.38;;;;;;;;;;5072493;28;20036;-86
2022/03/18 09:10:33;;;;;;;12.95;5.25;;;;;;;;;;5073392;28;20040;-87
2022/03/18 09:13:00;;;;;;;14.45;5.18;;;;;;;;;;5076336;28;20133;-85
2022/03/18 09:15:27;;;;;;;11.75;5.43;;;;;;;;;;5085614;28;20051;-85
2022/03/18 09:17:53;;;;;;;11.18;4.82;;;;;;;;;;5087986;28;20054;-85
2022/03/18 09:20:19;;;;;;;14.63;5.45;;;;;;;;;;5064979;28;20048;-87
2022/03/18 09:22:48;;;;;;;9.55;5.22;;;;;;;;;;5066517;28;20059;-87
2022/03/18 09:25:14;;;;;;;14.10;5.13;;;;;;;;;;5086746;28;20044;-84
2022/03/18 09:27:40;;;;;;;15.13;5.28;;;;;;;;;;5072151;28;20040;-90
2022/03/18 09:30:07;;;;;;;13.30;4.97;;;;;;;;;;5068308;28;20500;-87
2022/03/18 09:32:33;;;;;;;17.48;5.72;;;;;;;;;;5089015;28;20067;-88
2022/03/18 09:35:03;;;;;;;13.20;5.30;;;;;;;;;;5096160;28;20040;-88
2022/03/18 09:37:29;;;;;;;19.67;5.38;;;;;;;;;;5089028;28;20127;-86
2022/03/18 09:39:56;;;;;;;15.50;4.95;;;;;;;;;;5068306;28;20047;-87
2022/03/18 09:42:22;;;;;;;15.30;5.38;;;;;;;;;;5084372;28;20048;-86
2022/03/18 09:44:48;;;;;;;11.55;4.30;;;;;;;;;;5088001;28;20047;-86
2022/03/18 09:47:15;;;;;;;15.50;5.20;;;;;;;;;;5101963;28;20396;-85
2022/03/18 09:49:45;;;;;;;11.30;4.75;;;;;;;;;;5086412;28;20173;-86
2022/03/18 09:52:11;;;;;;;8.65;4.60;;;;;;;;;;5089300;28;20044;-85
2022/03/18 09:54:37;;;;;;;12.88;4.90;;;;;;;;;;5083123;28;20036;-85
2022/03/18 09:57:03;;;;;;;13.10;5.15;;;;;;;;;;5091301;28;20044;-85
2022/03/18 09:59:30;;;;;;;12.07;5.88;;;;;;;;;;5065867;28;20048;-85
2022/03/18 10:02:15;;;;;;;9.43;4.82;;;;;;;;;;5089639;28;20052;-86
2022/03/18 10:04:51;;;;;;;14.63;5.22;;;;;;;;;;5088963;28;20059;-77
2022/03/18 10:07:17;;;;;;;15.20;5.45;;;;;;;;;;5089714;28;20119;-89
2022/03/18 10:09:43;;;;;;;11.45;5.30;;;;;;;;;;5086738;28;20135;-84
2022/03/18 10:12:27;;;;;;;11.60;5.30;;;;;;;;;;5067444;28;20058;-84
2022/03/18 10:15:03;;;;;;;10.32;5.50;;;;;;;;;;5088392;28;20046;-84
2022/03/18 10:17:37;;;;;;;13.85;5.95;;;;;;;;;;5079635;28;20040;-84
2022/03/18 10:20:05;;;;;;;13.02;5.13;;;;;;;;;;5065920;28;20492;-83
2022/03/18 10:22:31;;;;;;;12.73;5.55;;;;;;;;;;5075816;28;20051;-83
2022/03/18 10:24:57;;;;;;;15.27;5.97;;;;;;;;;;5068303;28;20050;-81
2022/03/18 10:27:24;;;;;;;12.77;5.53;;;;;;;;;;5074047;28;20127;-82
2022/03/18 10:29:55;;;;;;;13.27;5.60;;;;;;;;;;5089479;28;20044;-82
2022/03/18 10:32:21;;;;;;;14.00;5.57;;;;;;;;;;5075502;28;20063;-81
2022/03/18 10:37:41;;;;;;;15.55;6.60;;;;;;;;;;5068509;28;20048;-81
2022/03/18 10:40:08;;;;;;;13.40;5.43;;;;;;;;;;5061672;28;20070;-81
2022/03/18 10:42:34;;;;;;;11.38;6.20;;;;;;;;;;5091513;28;20047;-80
2022/03/18 10:45:01;;;;;;;13.40;6.00;;;;;;;;;;5074971;28;20082;-81
2022/03/18 10:47:30;;;;;;;11.95;4.82;;;;;;;;;;5091309;28;20399;-81
2022/03/18 10:50:11;;;;;;;20.00;5.93;;;;;;;;;;5072280;28;20073;-80
2022/03/18 10:52:38;;;;;;;12.13;4.85;;;;;;;;;;5081861;28;20037;-84
2022/03/18 10:55:21;;;;;;;9.18;4.72;;;;;;;;;;5086518;28;20167;-83
2022/03/18 10:57:51;;;;;;;12.32;5.32;;;;;;;;;;5084253;28;20077;-85
2022/03/18 11:00:21;;;;;;;13.52;5.15;;;;;;;;;;5091263;28;20056;-86
2022/03/18 11:02:51;;;;;;;10.93;5.03;;;;;;;;;;5083890;28;20055;-82
2022/03/18 11:05:21;;;;;;;13.38;5.28;;;;;;;;;;5087228;28;20047;-88
2022/03/18 11:07:47;;;;;;;13.38;5.55;;;;;;;;;;5081115;28;20100;-85
2022/03/18 11:13:03;;;;;;;13.88;5.47;;;;;;;;;;5069049;28;20056;-84
2022/03/18 11:15:33;;;;;;;11.65;5.10;;;;;;;;;;5079376;28;20056;-85
2022/03/18 11:18:03;;;;;;;13.38;5.30;;;;;;;;;;5086168;28;20043;-84
2022/03/18 11:20:32;;;;;;;10.23;5.10;;;;;;;;;;5068930;28;20048;-83
2022/03/18 11:22:58;;;;;;;11.05;5.03;;;;;;;;;;5082307;28;20132;-85
2022/03/18 11:25:25;;;;;;;13.75;5.13;;;;;;;;;;5081853;28;20441;-86
2022/03/18 11:27:52;;;;;;;12.75;5.40;;;;;;;;;;5079631;28;20051;-84
2022/03/18 11:30:27;;;;;;;16.08;5.28;;;;;;;;;;5082563;28;20055;-85
2022/03/18 11:33:13;;;;;;;9.25;4.32;;;;;;;;;;5065714;28;20502;-82
2022/03/18 11:35:48;;;;;;;13.02;5.18;;;;;;;;;;5066825;28;20087;-82
2022/03/18 11:38:14;;;;;;;13.02;4.60;;;;;;;;;;5082356;28;20043;-83
2022/03/18 11:41:01;;;;;;;12.25;5.25;;;;;;;;;;5065052;28;20037;-82
2022/03/18 11:43:34;;;;;;;13.23;5.10;;;;;;;;;;5082976;28;20104;-82
2022/03/18 11:46:12;;;;;;;12.40;4.90;;;;;;;;;;5067575;28;20547;-82
2022/03/18 11:48:38;;;;;;;8.95;4.65;;;;;;;;;;5070725;28;20062;-83
2022/03/18 11:51:29;;;;;;;11.02;4.70;;;;;;;;;;5061277;28;20047;-80
2022/03/18 11:54:18;;;;;;;11.85;4.35;;;;;;;;;;5070502;28;20067;-86
2022/03/18 11:56:45;;;;;;;13.20;4.47;;;;;;;;;;5068563;28;20056;-79
2022/03/18 11:59:31;;;;;;;12.00;4.55;;;;;;;;;;5084524;28;20043;-81
2022/03/18 12:02:23;;;;;;;7.93;4.07;;;;;;;;;;5088596;28;20044;-81
2022/03/18 12:04:52;;;;;;;13.85;4.45;;;;;;;;;;5068143;28;20142;-81
2022/03/18 12:07:19;;;;;;;14.63;5.25;;;;;;;;;;5067726;28;20040;-82
2022/03/18 12:09:57;;;;;;;12.30;4.35;;;;;;;;;;5091887;28;20056;-79
2022/03/18 12:12:24;;;;;;;10.63;4.00;;;;;;;;;;5094091;28;20036;-88
2022/03/18 12:14:51;;;;;;;13.82;4.55;;;;;;;;;;5080813;28;20063;-86
2022/03/18 12:17:17;;;;;;;13.68;4.60;;;;;;;;;;5068257;28;20072;-87
2022/03/18 12:19:50;;;;;;;11.77;4.70;;;;;;;;;;5088580;28;20051;-88
2022/03/18 12:22:16;;;;;;;13.35;4.53;;;;;;;;;;5091405;28;20095;-88
2022/03/18 12:24:42;;;;;;;12.35;4.60;;;;;;;;;;5069137;28;20041;-87
2022/03/18 12:27:08;;;;;;;10.95;3.92;;;;;;;;;;5063727;28;20049;-86
2022/03/18 12:29:34;;;;;;;12.73;4.07;;;;;;;;;;5088693;28;20141;-87
2022/03/18 12:32:03;;;;;;;13.32;4.18;;;;;;;;;;5084964;28;20036;-86
2022/03/18 12:34:30;;;;;;;10.07;4.28;;;;;;;;;;5096690;28;20044;-87
2022/03/18 12:36:56;;;;;;;11.00;4.10;;;;;;;;;;5094564;28;20048;-87
2022/03/18 12:39:29;;;;;;;8.95;3.67;;;;;;;;;;5091302;28;20067;-87
2022/03/18 12:42:08;;;;;;;10.52;4.03;;;;;;;;;;5088905;28;20545;-87
2022/03/18 12:44:35;;;;;;;11.20;3.88;;;;;;;;;;5090586;28;20043;-86
2022/03/18 12:47:03;;;;;;;9.35;3.55;;;;;;;;;;5091614;28;20139;-86
2022/03/18 12:49:36;;;;;;;13.10;4.20;;;;;;;;;;5065529;28;20059;-87
2022/03/18 12:52:02;;;;;;;;;;;;;;;;;;5062130;28;20044;-87
2022/03/18 12:54:29;;;;;;;10.98;3.38;;;;;;;;;;5065680;28;19928;-87
2022/03/18 12:56:56;;;;;;;10.93;3.88;;;;;;;;;;5072284;28;20072;-87
2022/03/18 12:59:25;;;;;;;11.05;4.05;;;;;;;;;;5084923;28;20450;-87
2022/03/18 13:01:56;;;;;;;10.20;3.85;;;;;;;;;;5090312;28;20440;-87
2022/03/18 13:04:23;;;;;;;12.13;3.70;;;;;;;;;;5090173;28;20036;-89
2022/03/18 13:06:56;;;;;;;12.95;4.43;;;;;;;;;;5069606;28;20048;-87
2022/03/18 13:09:25;;;;;;;12.35;4.18;;;;;;;;;;5091066;28;20052;-88
2022/03/18 13:11:51;;;;;;;9.20;4.28;;;;;;;;;;5081552;28;20084;-86
2022/03/18 13:14:30;;;;;;;10.05;3.83;;;;;;;;;;5072490;28;20044;-86
2022/03/18 13:16:58;;;;;;;9.63;3.85;;;;;;;;;;5075435;28;20057;-86
2022/03/18 13:19:56;;;;;;;10.52;3.63;;;;;;;;;;5091104;28;20036;-87
2022/03/18 13:22:23;;;;;;;12.32;3.75;;;;;;;;;;5016739;28;20076;-88
2022/03/18 13:24:51;;;;;;;10.35;3.50;;;;;;;;;;5070272;28;20544;-86
2022/03/18 13:27:18;;;;;;;11.45;3.40;;;;;;;;;;5059925;28;20043;-86
2022/03/18 13:35:15;;;;;;;9.90;3.70;;;;;;;;;;5083086;28;20044;-85
2022/03/18 13:37:41;;;;;;;13.02;3.78;;;;;;;;;;5087687;28;20036;-86
2022/03/18 13:40:11;;;;;;;10.23;3.90;;;;;;;;;;5089098;28;20404;-85
2022/03/18 13:42:37;;;;;;;7.93;3.13;;;;;;;;;;5078244;28;20045;-85
2022/03/18 13:45:03;;;;;;;8.32;3.22;;;;;;;;;;5066672;28;20492;-85
2022/03/18 13:47:29;;;;;;;8.75;3.35;;;;;;;;;;5089987;28;20047;-86
2022/03/18 13:49:56;;;;;;;10.65;3.80;;;;;;;;;;5093810;28;20052;-83
2022/03/18 13:52:36;;;;;;;10.18;3.60;;;;;;;;;;5084724;28;20078;-85
2022/03/18 13:55:03;;;;;;;10.30;3.88;;;;;;;;;;5065274;28;21269;-84
2022/03/18 13:57:50;;;;;;;10.82;3.95;;;;;;;;;;5081531;28;20040;-84
2022/03/18 14:00:27;;;;;;;8.65;3.05;;;;;;;;;;5066706;28;20052;-86
2022/03/18 14:03:22;;;;;;;9.70;3.33;;;;;;;;;;5063586;28;20060;-85
2022/03/18 14:05:57;;;;;;;8.45;3.72;;;;;;;;;;5077385;28;20051;-87
2022/03/18 14:08:31;;;;;;;10.27;3.85;;;;;;;;;;5093190;28;20036;-87
2022/03/18 14:10:59;;;;;;;10.52;4.00;;;;;;;;;;5087100;28;20127;-84
2022/03/18 14:13:30;;;;;;;8.63;3.10;;;;;;;;;;5071781;28;20051;-90
2022/03/18 14:15:56;;;;;;;8.27;3.20;;;;;;;;;;5093326;28;20058;-79
2022/03/18 14:18:40;;;;;;;7.95;3.00;;;;;;;;;;5089649;28;20051;-79
2022/03/18 14:21:07;;;;;;;10.73;3.65;;;;;;;;;;5067113;28;20066;-77
2022/03/18 14:23:36;;;;;;;6.47;3.08;;;;;;;;;;5090378;28;20044;-79
2022/03/18 14:26:08;;;;;;;8.27;3.03;;;;;;;;;;5092006;28;20047;-77
2022/03/18 14:28:35;;;;;;;9.65;3.10;;;;;;;;;;5090261;28;20095;-81
2022/03/18 14:31:01;;;;;;;7.72;3.00;;;;;;;;;;5091516;28;20388;-76
2022/03/18 14:33:30;;;;;;;8.32;3.13;;;;;;;;;;5091221;28;20388;-79
2022/03/18 14:35:57;;;;;;;8.38;3.47;;;;;;;;;;5090932;28;20152;-80
2022/03/18 14:38:24;;;;;;;8.13;3.00;;;;;;;;;;5089709;28;20067;-77
2022/03/18 14:40:50;;;;;;;6.40;2.83;;;;;;;;;;5083640;28;20051;-80
2022/03/18 14:43:20;;;;;;;9.32;3.15;;;;;;;;;;5092601;28;20044;-79
2022/03/18 14:45:46;;;;;;;7.28;2.78;;;;;;;;;;5082939;28;20040;-78
2022/03/18 14:48:12;;;;;;;7.43;3.13;;;;;;;;;;5067524;28;20136;-79
2022/03/18 14:50:40;;;;;;;7.03;3.08;;;;;;;;;;5090442;28;20483;-79
2022/03/18 14:53:10;;;;;;;6.88;3.10;;;;;;;;;;5090439;28;20860;-80
2022/03/18 14:58:22;;;;;;;8.30;3.42;;;;;;;;;;5092173;28;20052;-79
2022/03/18 15:00:48;;;;;;;8.85;3.10;;;;;;;;;;5071006;28;20052;-79
2022/03/18 15:03:14;;;;;;;6.07;2.80;;;;;;;;;;5056606;28;20054;-79